Terminal Aerodrome Forecast
Issued by NWS Pueblo, CO

Home | Current Version | Previous Version | Text Only | Print | Product List | Glossary On
Versions: 1 2 3 4 5 6 7 8 9 10 11 12 13 14
000
FTUS45 KPUB 242333
TAFCOS
TAF
KCOS 242333Z 2500/2524 14014KT P6SM SCT120
     FM250200 13008KT P6SM FEW120
     FM250500 35007KT P6SM FEW200
     FM251600 16010KT P6SM SCT200
     FM252000 18014G24KT P6SM FEW140 SCT200=

USA.gov is the U.S. government's official web portal to all federal, state and local government web resources and services.